createdAt,value
2022-09-28T00:01:17.524Z,11.38
2022-09-28T00:03:48.244Z,11.31
2022-09-28T00:06:16.802Z,11.24
2022-09-28T00:08:43.334Z,11.05
2022-09-28T00:11:12.886Z,10.96
2022-09-28T00:13:40.314Z,11.04
2022-09-28T00:16:08.995Z,11.03
2022-09-28T00:18:36.195Z,11.03
2022-09-28T00:21:11.166Z,11.11
2022-09-28T00:23:56.221Z,11.12
2022-09-28T00:26:23.287Z,11.06
2022-09-28T00:28:54.004Z,11.01
2022-09-28T00:31:21.296Z,11.10
2022-09-28T00:33:52.065Z,11.13
2022-09-28T00:36:21.201Z,11.15
2022-09-28T00:38:48.389Z,11.12
2022-09-28T00:41:16.089Z,11.13
2022-09-28T00:43:46.223Z,11.16
2022-09-28T00:46:23.792Z,11.14
2022-09-28T00:48:57.883Z,11.14
2022-09-28T00:51:25.576Z,11.22
2022-09-28T00:53:56.186Z,11.24
2022-09-28T00:56:25.507Z,11.25
2022-09-28T00:58:53.486Z,11.38
2022-09-28T01:01:20.603Z,11.40
2022-09-28T01:03:50.817Z,11.41
2022-09-28T01:06:20.502Z,11.30
2022-09-28T01:08:50.555Z,11.28
2022-09-28T01:11:18.637Z,11.16
2022-09-28T01:13:46.596Z,11.16
2022-09-28T01:16:28.539Z,11.08
2022-09-28T01:19:24.797Z,11.14
2022-09-28T01:22:01.843Z,11.14
2022-09-28T01:24:41.032Z,11.14
2022-09-28T01:27:16.006Z,11.13
2022-09-28T01:30:04.967Z,11.09
2022-09-28T01:32:50.107Z,10.96
2022-09-28T01:35:31.825Z,10.75
2022-09-28T01:38:17.289Z,10.69
2022-09-28T01:40:44.530Z,10.49
2022-09-28T01:43:18.107Z,10.53
2022-09-28T01:45:47.907Z,10.38
2022-09-28T01:48:19.550Z,10.29
2022-09-28T01:50:48.582Z,10.22
2022-09-28T01:53:35.508Z,10.25
2022-09-28T01:56:24.461Z,10.21
2022-09-28T01:58:55.477Z,10.32
2022-09-28T02:01:28.330Z,10.42
2022-09-28T02:04:07.160Z,10.42
2022-09-28T02:06:42.105Z,10.43
2022-09-28T02:09:11.914Z,10.51
2022-09-28T02:11:42.461Z,10.56
2022-09-28T02:14:11.623Z,10.60
2022-09-28T02:16:41.833Z,10.60
2022-09-28T02:19:17.975Z,10.54
2022-09-28T02:22:03.080Z,10.47
2022-09-28T02:24:39.543Z,10.45
2022-09-28T02:27:14.796Z,10.49
2022-09-28T02:29:41.530Z,10.64
2022-09-28T02:32:07.990Z,10.62
2022-09-28T02:34:35.449Z,10.66
2022-09-28T02:37:02.099Z,10.74
2022-09-28T02:39:28.521Z,10.63
2022-09-28T02:42:29.744Z,10.70
2022-09-28T02:45:24.674Z,10.75
2022-09-28T02:48:19.101Z,10.70
2022-09-28T02:51:01.043Z,10.82
2022-09-28T02:54:06.234Z,11.00
2022-09-28T02:56:47.483Z,10.88
2022-09-28T02:59:24.424Z,10.85
2022-09-28T03:02:06.574Z,10.81
2022-09-28T03:04:37.533Z,10.91
2022-09-28T03:07:07.568Z,10.87
2022-09-28T03:09:37.898Z,10.81
2022-09-28T03:12:08.830Z,10.83
2022-09-28T03:14:35.492Z,10.74
2022-09-28T03:17:01.980Z,10.76
2022-09-28T03:19:32.471Z,10.89
2022-09-28T03:21:59.592Z,11.00
2022-09-28T03:24:26.365Z,11.00
2022-09-28T03:26:52.822Z,11.12
2022-09-28T03:29:20.486Z,11.44
2022-09-28T03:31:47.902Z,11.27
2022-09-28T03:34:14.516Z,11.20
2022-09-28T03:36:40.958Z,11.13
2022-09-28T03:39:07.381Z,11.09
2022-09-28T03:41:33.852Z,10.91
2022-09-28T03:44:00.326Z,10.87
2022-09-28T03:46:27.378Z,10.81
2022-09-28T03:48:57.682Z,10.67
2022-09-28T03:51:24.106Z,10.81
2022-09-28T03:53:50.514Z,10.82
2022-09-28T03:56:17.482Z,10.88
2022-09-28T03:58:43.914Z,10.86
2022-09-28T04:01:16.905Z,10.76
2022-09-28T04:03:44.586Z,10.82
2022-09-28T04:06:11.363Z,10.63
2022-09-28T04:08:37.803Z,10.79
2022-09-28T04:11:04.348Z,10.89
2022-09-28T04:13:31.017Z,10.90
2022-09-28T04:15:59.809Z,10.94
2022-09-28T04:18:26.488Z,10.87
2022-09-28T04:21:06.661Z,11.06
2022-09-28T04:23:35.369Z,10.99
2022-09-28T04:26:03.984Z,10.86
2022-09-28T04:28:48.923Z,10.76
2022-09-28T04:31:18.193Z,10.48
2022-09-28T04:33:44.700Z,10.43
2022-09-28T04:36:11.225Z,10.37
2022-09-28T04:38:52.350Z,10.54
2022-09-28T04:41:19.819Z,10.51
2022-09-28T04:43:50.035Z,10.52
2022-09-28T04:46:16.701Z,10.79
2022-09-28T04:48:43.250Z,10.90
2022-09-28T04:51:09.695Z,10.87
2022-09-28T04:53:36.195Z,10.73
2022-09-28T04:56:08.159Z,10.62
2022-09-28T04:58:35.708Z,10.65
2022-09-28T05:01:08.530Z,10.68
2022-09-28T05:03:35.208Z,10.44
2022-09-28T05:06:01.656Z,10.53
2022-09-28T05:08:28.096Z,10.69
2022-09-28T05:11:02.657Z,10.73
2022-09-28T05:13:29.643Z,10.63
2022-09-28T05:16:00.608Z,10.41
2022-09-28T05:18:29.844Z,10.42
2022-09-28T05:20:56.263Z,10.67
2022-09-28T05:23:22.697Z,10.76
2022-09-28T05:25:49.242Z,10.77
2022-09-28T05:28:27.236Z,10.72
2022-09-28T05:30:55.551Z,10.72
2022-09-28T05:33:22.012Z,10.70
2022-09-28T05:35:54.410Z,10.77
2022-09-28T05:38:22.893Z,10.64
2022-09-28T05:40:49.594Z,10.69
2022-09-28T05:43:16.054Z,10.71
2022-09-28T05:45:42.663Z,10.75
2022-09-28T05:48:09.114Z,10.88
2022-09-28T05:50:35.822Z,10.89
2022-09-28T05:53:08.351Z,10.81
2022-09-28T05:55:36.136Z,10.79
2022-09-28T05:58:04.876Z,10.59
2022-09-28T06:00:33.290Z,10.47
2022-09-28T06:03:21.300Z,10.49
2022-09-28T06:05:47.787Z,10.59
2022-09-28T06:08:14.271Z,10.78
2022-09-28T06:10:40.968Z,10.74
2022-09-28T06:13:08.014Z,10.61
2022-09-28T06:15:35.692Z,10.55
2022-09-28T06:18:04.685Z,10.63
2022-09-28T06:20:36.611Z,10.80
2022-09-28T06:23:03.437Z,10.92
2022-09-28T06:25:29.890Z,10.73
2022-09-28T06:28:04.784Z,10.70
2022-09-28T06:30:33.445Z,10.57
2022-09-28T06:33:01.941Z,10.70
2022-09-28T06:35:30.450Z,10.52
2022-09-28T06:37:57.741Z,10.46
2022-09-28T06:40:24.947Z,10.69
2022-09-28T06:43:12.539Z,10.69
2022-09-28T06:45:39.240Z,10.53
2022-09-28T06:48:06.575Z,10.55
2022-09-28T06:50:35.939Z,10.44
2022-09-28T06:53:02.548Z,10.48
2022-09-28T06:55:29.130Z,10.54
2022-09-28T06:58:00.399Z,10.59
2022-09-28T07:00:28.531Z,10.68
2022-09-28T07:02:54.977Z,10.76
2022-09-28T07:05:26.699Z,10.57
2022-09-28T07:07:59.011Z,10.63
2022-09-28T07:10:28.457Z,10.56
2022-09-28T07:12:56.653Z,10.54
2022-09-28T07:15:24.043Z,10.62
2022-09-28T07:18:00.710Z,10.64
2022-09-28T07:20:28.729Z,10.73
2022-09-28T07:22:56.412Z,10.73
2022-09-28T07:25:24.314Z,10.58
2022-09-28T07:27:50.749Z,10.62
2022-09-28T07:30:17.644Z,10.64
2022-09-28T07:32:45.356Z,10.79
2022-09-28T07:35:11.780Z,10.73
2022-09-28T07:37:38.932Z,10.45
2022-09-28T07:40:25.881Z,10.51
2022-09-28T07:42:52.464Z,10.40
2022-09-28T07:45:20.752Z,10.45
2022-09-28T07:47:47.205Z,10.59
2022-09-28T07:50:13.702Z,10.72
2022-09-28T07:52:40.156Z,10.68
2022-09-28T07:55:07.601Z,10.79
2022-09-28T07:57:34.767Z,10.79
2022-09-28T08:00:02.279Z,10.67
2022-09-28T08:02:28.847Z,10.77
2022-09-28T08:04:56.375Z,10.70
2022-09-28T08:07:24.178Z,10.71
2022-09-28T08:09:51.084Z,10.86
2022-09-28T08:12:19.702Z,10.86
2022-09-28T08:14:47.109Z,10.87
2022-09-28T08:17:13.667Z,10.90
2022-09-28T08:19:58.509Z,10.73
2022-09-28T08:22:24.957Z,10.73
2022-09-28T08:24:51.463Z,10.80
2022-09-28T08:27:18.425Z,10.89
2022-09-28T08:29:44.882Z,10.91
2022-09-28T08:32:11.309Z,10.94
2022-09-28T08:34:39.035Z,10.96
2022-09-28T08:37:06.300Z,10.91
2022-09-28T08:39:34.529Z,10.94
2022-09-28T08:42:36.064Z,10.90
2022-09-28T08:45:08.434Z,10.81
2022-09-28T08:48:02.673Z,11.05
2022-09-28T08:50:32.116Z,10.95
2022-09-28T08:53:07.407Z,10.87
2022-09-28T08:55:37.267Z,10.89
2022-09-28T08:58:28.279Z,10.95
2022-09-28T09:00:54.813Z,10.99
2022-09-28T09:03:23.790Z,11.09
2022-09-28T09:06:18.622Z,11.13
2022-09-28T09:09:10.882Z,11.16
2022-09-28T09:12:14.967Z,11.12
2022-09-28T09:14:50.602Z,11.07
2022-09-28T09:17:35.865Z,10.88
2022-09-28T09:20:05.277Z,10.53
2022-09-28T09:22:48.545Z,10.72
2022-09-28T09:25:20.799Z,10.68
2022-09-28T09:28:07.924Z,10.84
2022-09-28T09:30:47.093Z,10.81
2022-09-28T09:33:42.350Z,10.83
2022-09-28T09:36:30.297Z,10.87
2022-09-28T09:39:06.720Z,10.84
2022-09-28T09:41:38.971Z,10.97
2022-09-28T09:44:15.975Z,11.07
2022-09-28T09:46:56.784Z,10.90
2022-09-28T09:49:24.636Z,11.00
2022-09-28T09:52:10.072Z,10.81
2022-09-28T09:54:44.624Z,10.89
2022-09-28T09:57:19.608Z,11.11
2022-09-28T09:59:47.454Z,11.16
2022-09-28T10:02:26.291Z,11.29
2022-09-28T10:04:56.102Z,10.98
2022-09-28T10:07:26.728Z,11.09
2022-09-28T10:09:57.080Z,11.13
2022-09-28T10:12:24.362Z,11.10
2022-09-28T10:14:50.881Z,11.34
2022-09-28T10:17:20.146Z,11.28
2022-09-28T10:19:46.731Z,11.27
2022-09-28T10:22:21.709Z,11.36
2022-09-28T10:24:51.265Z,11.53
2022-09-28T10:27:20.072Z,11.64
2022-09-28T10:29:53.626Z,11.60
2022-09-28T10:32:25.451Z,11.39
2022-09-28T10:34:53.173Z,11.33
2022-09-28T10:37:19.664Z,11.52
2022-09-28T10:39:51.202Z,11.19
2022-09-28T10:42:29.779Z,11.01
2022-09-28T10:45:25.615Z,11.04
2022-09-28T10:47:52.222Z,11.19
2022-09-28T10:50:26.772Z,11.14
2022-09-28T10:52:53.315Z,11.27
2022-09-28T10:55:28.951Z,11.04
2022-09-28T10:57:55.419Z,10.82
2022-09-28T11:00:57.220Z,11.01
2022-09-28T11:03:25.857Z,10.99
2022-09-28T11:06:07.510Z,11.07
2022-09-28T11:08:42.873Z,11.13
2022-09-28T11:11:16.906Z,10.92
2022-09-28T11:14:21.037Z,11.06
2022-09-28T11:16:47.505Z,11.11
2022-09-28T11:19:20.666Z,11.27
2022-09-28T11:21:47.134Z,11.16
2022-09-28T11:24:22.077Z,11.24
2022-09-28T11:26:52.891Z,11.27
2022-09-28T11:29:42.189Z,11.43
2022-09-28T11:32:14.887Z,11.32
2022-09-28T11:34:59.092Z,11.65
2022-09-28T11:37:52.880Z,11.74
2022-09-28T11:40:25.132Z,12.27
2022-09-28T11:43:15.937Z,12.50
2022-09-28T11:45:52.485Z,12.84
2022-09-28T11:48:24.049Z,13.30
2022-09-28T11:50:58.721Z,13.19
2022-09-28T11:53:30.978Z,13.20
2022-09-28T11:56:28.342Z,13.28
2022-09-28T11:59:06.656Z,13.27
2022-09-28T12:01:52.335Z,13.30
2022-09-28T12:04:26.606Z,13.42
2022-09-28T12:06:58.301Z,13.34
2022-09-28T12:09:36.184Z,13.49
2022-09-28T12:12:10.391Z,13.58
2022-09-28T12:14:40.007Z,13.45
2022-09-28T12:17:28.924Z,13.14
2022-09-28T12:20:01.712Z,12.99
2022-09-28T12:22:42.283Z,13.36
2022-09-28T12:25:13.513Z,13.09
2022-09-28T12:28:01.701Z,13.32
2022-09-28T12:30:32.485Z,13.74
2022-09-28T12:33:13.836Z,13.59
2022-09-28T12:35:57.055Z,14.05
2022-09-28T12:38:23.426Z,14.38
2022-09-28T12:40:59.103Z,14.21
2022-09-28T12:43:34.596Z,14.05
2022-09-28T12:46:30.583Z,13.50
2022-09-28T12:52:12.753Z,13.42
2022-09-28T12:55:05.333Z,13.48
2022-09-28T12:57:40.274Z,13.65
2022-09-28T13:00:15.799Z,13.38
2022-09-28T13:03:07.866Z,13.50
2022-09-28T13:05:55.763Z,13.48
2022-09-28T13:08:41.361Z,13.58
2022-09-28T13:11:34.157Z,13.43
2022-09-28T13:14:28.336Z,13.33
2022-09-28T13:17:11.019Z,13.37
2022-09-28T13:19:51.670Z,13.20
2022-09-28T13:22:27.098Z,13.15
2022-09-28T13:24:55.870Z,13.34
2022-09-28T13:27:34.859Z,13.48
2022-09-28T13:30:03.905Z,13.42
2022-09-28T13:32:31.494Z,13.49
2022-09-28T13:34:58.748Z,13.31
2022-09-28T13:37:25.862Z,13.27
2022-09-28T13:39:59.408Z,13.47
2022-09-28T13:42:44.628Z,13.25
2022-09-28T13:45:20.040Z,13.15
2022-09-28T13:48:16.572Z,13.12
2022-09-28T13:50:56.878Z,13.22
2022-09-28T13:53:45.175Z,13.05
2022-09-28T13:56:20.436Z,13.26
2022-09-28T13:58:51.496Z,13.06
2022-09-28T14:01:22.047Z,13.03
2022-09-28T14:03:54.981Z,13.10
2022-09-28T14:06:31.906Z,13.11
2022-09-28T14:09:18.684Z,13.08
2022-09-28T14:12:27.682Z,13.28
2022-09-28T14:14:54.256Z,13.15
2022-09-28T14:17:23.658Z,13.15
2022-09-28T14:20:09.129Z,12.90
2022-09-28T14:22:44.889Z,13.08
2022-09-28T14:25:11.400Z,13.02
2022-09-28T14:27:41.936Z,13.04
2022-09-28T14:30:24.933Z,12.84
2022-09-28T14:32:55.285Z,12.66
2022-09-28T14:35:27.824Z,12.56
2022-09-28T14:38:17.990Z,12.51
2022-09-28T14:41:12.706Z,12.51
2022-09-28T14:43:45.183Z,12.56
2022-09-28T14:46:11.666Z,12.51
2022-09-28T14:48:45.929Z,12.54
2022-09-28T14:51:35.452Z,12.57
2022-09-28T14:54:08.245Z,12.51
2022-09-28T14:56:57.144Z,12.42
2022-09-28T14:59:24.932Z,12.33
2022-09-28T15:01:57.764Z,12.31
2022-09-28T15:04:28.119Z,12.27
2022-09-28T15:06:54.864Z,12.34
2022-09-28T15:09:38.262Z,12.35
2022-09-28T15:12:12.168Z,12.37
2022-09-28T15:14:55.278Z,12.26
2022-09-28T15:17:38.532Z,12.30
2022-09-28T15:20:17.265Z,12.28
2022-09-28T15:22:48.821Z,12.10
2022-09-28T15:25:19.986Z,12.27
2022-09-28T15:27:52.600Z,12.28
2022-09-28T15:30:22.941Z,12.27
2022-09-28T15:32:49.893Z,12.25
2022-09-28T15:35:20.951Z,12.28
2022-09-28T15:37:54.890Z,12.23
2022-09-28T15:40:27.088Z,12.30
2022-09-28T15:42:59.197Z,12.31
2022-09-28T15:45:34.958Z,12.31
2022-09-28T15:48:31.052Z,12.27
2022-09-28T15:51:10.845Z,12.22
2022-09-28T15:54:02.106Z,12.20
2022-09-28T15:56:29.418Z,12.16
2022-09-28T15:59:10.955Z,12.21
2022-09-28T16:01:39.723Z,12.29
2022-09-28T16:04:32.818Z,12.26
2022-09-28T16:07:18.436Z,12.22
2022-09-28T16:10:13.606Z,12.10
2022-09-28T16:12:39.945Z,11.92
2022-09-28T16:15:25.139Z,12.08
2022-09-28T16:17:55.867Z,12.08
2022-09-28T16:20:32.131Z,11.94
2022-09-28T16:23:05.896Z,11.89
2022-09-28T16:25:35.808Z,12.04
2022-09-28T16:28:02.247Z,12.19
2022-09-28T16:30:33.613Z,12.15
2022-09-28T16:33:05.675Z,11.79
2022-09-28T16:35:34.763Z,11.61
2022-09-28T16:38:14.349Z,11.52
2022-09-28T16:40:42.664Z,11.45
2022-09-28T16:43:17.535Z,11.35
2022-09-28T16:45:44.176Z,11.32
2022-09-28T16:48:16.329Z,11.21
2022-09-28T16:50:42.988Z,11.27
2022-09-28T16:53:35.806Z,11.12
2022-09-28T16:56:03.642Z,10.95
2022-09-28T16:58:31.495Z,10.90
2022-09-28T17:06:31.381Z,10.67
2022-09-28T17:08:58.698Z,10.61
2022-09-28T17:17:06.718Z,10.41
2022-09-28T17:19:31.335Z,10.63
2022-09-28T17:21:57.863Z,10.40
2022-09-28T17:24:24.308Z,10.35
2022-09-28T17:26:51.770Z,10.28
2022-09-28T17:29:18.936Z,10.28
2022-09-28T17:31:46.558Z,10.12
2022-09-28T17:34:16.750Z,9.91
2022-09-28T17:36:43.455Z,9.83
2022-09-28T17:39:14.672Z,9.76
2022-09-28T17:41:41.477Z,9.75
2022-09-28T17:44:08.678Z,9.49
2022-09-28T17:46:39.489Z,9.59
2022-09-28T17:49:07.543Z,9.56
2022-09-28T17:51:37.482Z,9.54
2022-09-28T17:54:06.575Z,9.53
2022-09-28T17:56:33.118Z,9.49
2022-09-28T17:59:07.768Z,9.38
2022-09-28T18:01:37.812Z,9.37
2022-09-28T18:04:08.125Z,9.39
2022-09-28T18:06:35.085Z,9.31
2022-09-28T18:09:03.112Z,9.19
2022-09-28T18:11:30.600Z,9.16
2022-09-28T18:13:58.236Z,9.12
2022-09-28T18:16:28.534Z,9.01
2022-09-28T18:18:55.551Z,9.11
2022-09-28T18:21:22.081Z,8.99
2022-09-28T18:23:51.604Z,8.85
2022-09-28T18:26:21.256Z,8.76
2022-09-28T18:28:47.809Z,8.76
2022-09-28T18:31:15.635Z,8.78
2022-09-28T18:33:43.307Z,8.80
2022-09-28T18:36:09.878Z,8.79
2022-09-28T18:38:36.958Z,8.82
2022-09-28T18:41:11.974Z,8.85
2022-09-28T18:43:38.556Z,9.04
2022-09-28T18:46:07.431Z,9.00
2022-09-28T18:48:34.076Z,8.81
2022-09-28T18:51:00.540Z,8.72
2022-09-28T18:53:27.139Z,8.59
2022-09-28T18:55:53.726Z,8.55
2022-09-28T18:58:20.171Z,8.50
2022-09-28T19:00:46.644Z,8.46
2022-09-28T19:03:14.410Z,8.42
2022-09-28T19:05:42.593Z,8.38
2022-09-28T19:08:09.917Z,8.45
2022-09-28T19:10:36.688Z,8.38
2022-09-28T19:13:03.181Z,8.40
2022-09-28T19:15:29.697Z,8.40
2022-09-28T19:17:57.123Z,8.44
2022-09-28T19:20:23.637Z,8.36
2022-09-28T19:22:50.762Z,8.29
2022-09-28T19:25:17.415Z,8.25
2022-09-28T19:27:44.279Z,8.34
2022-09-28T19:30:11.253Z,8.38
2022-09-28T19:32:37.921Z,8.45
2022-09-28T19:35:05.142Z,8.54
2022-09-28T19:37:35.413Z,8.52
2022-09-28T19:40:05.830Z,8.64
2022-09-28T19:42:32.814Z,8.79
2022-09-28T19:44:59.455Z,8.70
2022-09-28T19:47:26.077Z,8.72
2022-09-28T19:49:53.494Z,8.72
2022-09-28T19:52:20.005Z,8.72
2022-09-28T19:54:58.697Z,8.82
2022-09-28T19:57:30.580Z,8.82
2022-09-28T20:00:02.131Z,8.76
2022-09-28T20:02:29.608Z,8.66
2022-09-28T20:04:56.170Z,8.58
2022-09-28T20:07:22.661Z,8.68
2022-09-28T20:09:49.160Z,8.81
2022-09-28T20:12:15.751Z,8.60
2022-09-28T20:14:42.275Z,8.56
2022-09-28T20:17:09.678Z,8.57
2022-09-28T20:19:36.190Z,8.55
2022-09-28T20:22:03.163Z,8.68
2022-09-28T20:24:31.360Z,8.80
2022-09-28T20:27:00.125Z,8.81
2022-09-28T20:29:26.774Z,8.68
2022-09-28T20:31:54.992Z,8.82
2022-09-28T20:34:21.508Z,8.89
2022-09-28T20:36:48.664Z,8.76
2022-09-28T20:39:15.479Z,8.94
2022-09-28T20:41:42.413Z,8.80
2022-09-28T20:44:09.583Z,8.97
2022-09-28T20:46:36.901Z,8.91
2022-09-28T20:49:04.599Z,8.74
2022-09-28T20:51:31.672Z,8.71
2022-09-28T20:53:58.882Z,8.78
2022-09-28T20:56:30.704Z,8.60
2022-09-28T20:58:57.515Z,8.67
2022-09-28T21:01:29.844Z,8.77
2022-09-28T21:03:58.063Z,8.66
2022-09-28T21:06:29.826Z,8.62
2022-09-28T21:08:56.684Z,8.64
2022-09-28T21:11:24.700Z,8.60
2022-09-28T21:13:57.220Z,8.66
2022-09-28T21:16:24.646Z,8.84
2022-09-28T21:18:51.192Z,8.94
2022-09-28T21:21:21.374Z,8.69
2022-09-28T21:23:48.163Z,9.02
2022-09-28T21:26:25.040Z,9.18
2022-09-28T21:28:53.846Z,8.93
2022-09-28T21:31:26.085Z,9.03
2022-09-28T21:33:55.269Z,8.97
2022-09-28T21:36:21.822Z,8.87
2022-09-28T21:38:48.290Z,8.77
2022-09-28T21:41:15.058Z,8.64
2022-09-28T21:43:41.512Z,8.57
2022-09-28T21:46:07.983Z,8.65
2022-09-28T21:48:34.493Z,8.82
2022-09-28T21:51:06.179Z,8.83
2022-09-28T21:53:35.067Z,8.65
2022-09-28T21:56:02.359Z,8.68
2022-09-28T21:58:31.154Z,8.68
2022-09-28T22:01:06.852Z,8.77
2022-09-28T22:03:35.258Z,8.65
2022-09-28T22:06:03.294Z,8.58
2022-09-28T22:08:29.856Z,8.46
2022-09-28T22:11:06.739Z,8.39
2022-09-28T22:13:40.311Z,8.60
2022-09-28T22:16:07.436Z,8.67
2022-09-28T22:18:34.513Z,8.60
2022-09-28T22:21:12.030Z,8.75
2022-09-28T22:23:39.119Z,8.84
2022-09-28T22:26:11.132Z,8.44
2022-09-28T22:28:38.182Z,8.28
2022-09-28T22:31:04.829Z,8.17
2022-09-28T22:33:31.531Z,8.29
2022-09-28T22:35:57.997Z,8.48
2022-09-28T22:38:24.921Z,8.26
2022-09-28T22:40:54.613Z,8.32
2022-09-28T22:43:23.405Z,8.47
2022-09-28T22:45:50.235Z,8.32
2022-09-28T22:48:18.574Z,8.28
2022-09-28T22:50:51.573Z,8.18
2022-09-28T22:53:18.875Z,8.19
2022-09-28T22:55:45.558Z,8.50
2022-09-28T22:58:12.246Z,8.60
2022-09-28T23:00:38.719Z,8.52
2022-09-28T23:03:05.367Z,8.30
2022-09-28T23:05:31.996Z,8.31
2022-09-28T23:07:58.461Z,8.29
2022-09-28T23:10:24.935Z,8.26
2022-09-28T23:12:53.467Z,8.14
2022-09-28T23:15:20.992Z,7.98
2022-09-28T23:17:53.995Z,8.08
2022-09-28T23:20:21.175Z,7.98
2022-09-28T23:22:48.023Z,8.06
2022-09-28T23:25:17.713Z,8.23
2022-09-28T23:27:48.763Z,8.10
2022-09-28T23:30:16.831Z,8.18
2022-09-28T23:32:44.932Z,8.21
2022-09-28T23:35:11.818Z,8.30
2022-09-28T23:37:38.784Z,8.23
2022-09-28T23:40:06.260Z,8.40
2022-09-28T23:42:34.696Z,8.35
2022-09-28T23:45:03.592Z,8.34
2022-09-28T23:47:30.069Z,8.39
2022-09-28T23:49:56.545Z,8.31
2022-09-28T23:52:23.004Z,8.29
2022-09-28T23:54:50.514Z,8.39
2022-09-28T23:57:16.960Z,8.35
2022-09-28T23:59:43.407Z,8.37
